createdAt,value
2022-07-30T00:01:45.004Z,100740.13
2022-07-30T00:04:13.093Z,100737.94
2022-07-30T00:06:40.902Z,100734.94
2022-07-30T00:11:36.719Z,100712.28
2022-07-30T00:14:04.637Z,100721.28
2022-07-30T00:16:32.757Z,100724.53
2022-07-30T00:21:36.302Z,100717.19
2022-07-30T00:24:07.675Z,100711.28
2022-07-30T00:26:35.400Z,100700.22
2022-07-30T00:29:03.410Z,100701.03
2022-07-30T00:31:33.179Z,100696.44
2022-07-30T00:34:06.728Z,100698.63
2022-07-30T00:36:38.005Z,100686.22
2022-07-30T00:39:09.154Z,100699.50
2022-07-30T00:41:56.638Z,100687.72
2022-07-30T00:44:27.403Z,100691.38
2022-07-30T00:46:56.192Z,100678.84
2022-07-30T00:49:26.247Z,100677.75
2022-07-30T00:54:25.977Z,100665.38
2022-07-30T00:59:23.599Z,100662.91
2022-07-30T01:01:52.331Z,100652.84
2022-07-30T01:04:20.768Z,100650.78
2022-07-30T01:06:48.479Z,100662.06
2022-07-30T01:11:48.889Z,100655.19
2022-07-30T01:14:17.378Z,100658.63
2022-07-30T01:16:49.234Z,100653.25
2022-07-30T01:19:42.124Z,100640.13
2022-07-30T01:22:16.790Z,100652.78
2022-07-30T01:24:57.620Z,100649.25
2022-07-30T01:27:30.596Z,100643.88
2022-07-30T01:30:00.147Z,100639.56
2022-07-30T01:32:31.677Z,100638.97
2022-07-30T01:35:01.598Z,100629.88
2022-07-30T01:37:34.564Z,100627.75
2022-07-30T01:40:05.012Z,100632.84
2022-07-30T01:42:36.808Z,100630.47
2022-07-30T01:45:07.307Z,100632.47
2022-07-30T01:47:37.426Z,100616.47
2022-07-30T01:50:11.010Z,100621.69
2022-07-30T01:52:41.988Z,100616.91
2022-07-30T01:55:17.024Z,100613.44
2022-07-30T01:57:53.685Z,100611.06
2022-07-30T02:00:23.915Z,100610.03
2022-07-30T02:02:57.365Z,100596.31
2022-07-30T02:05:28.627Z,100600.16
2022-07-30T02:08:01.649Z,100595.84
2022-07-30T02:10:35.592Z,100591.22
2022-07-30T02:13:09.134Z,100588.00
2022-07-30T02:15:42.004Z,100595.03
2022-07-30T02:18:15.934Z,100586.88
2022-07-30T02:21:02.635Z,100589.81
2022-07-30T02:23:42.333Z,100592.75
2022-07-30T02:26:16.544Z,100588.16
2022-07-30T02:28:49.203Z,100598.38
2022-07-30T02:31:20.052Z,100597.00
2022-07-30T02:33:50.969Z,100596.75
2022-07-30T02:36:20.858Z,100598.91
2022-07-30T02:38:52.886Z,100583.88
2022-07-30T02:41:23.848Z,100589.50
2022-07-30T02:46:27.750Z,100568.56
2022-07-30T02:48:58.598Z,100577.16
2022-07-30T02:51:28.141Z,100586.28
2022-07-30T02:53:59.404Z,100576.91
2022-07-30T02:56:28.622Z,100578.78
2022-07-30T02:59:06.211Z,100561.91
2022-07-30T03:04:06.802Z,100557.56
2022-07-30T03:06:37.222Z,100562.06
2022-07-30T03:09:07.842Z,100553.22
2022-07-30T03:11:37.483Z,100555.09
2022-07-30T03:14:08.496Z,100546.25
2022-07-30T03:16:38.882Z,100544.78
2022-07-30T03:19:13.134Z,100545.22
2022-07-30T03:21:41.931Z,100547.91
2022-07-30T03:24:12.663Z,100544.16
2022-07-30T03:26:42.449Z,100542.13
2022-07-30T03:31:45.084Z,100539.81
2022-07-30T03:34:13.603Z,100539.19
2022-07-30T03:36:42.391Z,100532.53
2022-07-30T03:39:13.818Z,100541.63
2022-07-30T03:41:42.347Z,100544.06
2022-07-30T03:44:12.615Z,100545.97
2022-07-30T03:46:42.020Z,100548.16
2022-07-30T03:49:11.785Z,100550.34
2022-07-30T03:51:40.299Z,100555.59
2022-07-30T03:54:13.780Z,100560.97
2022-07-30T03:56:42.124Z,100564.69
2022-07-30T03:59:14.604Z,100559.66
2022-07-30T04:01:46.382Z,100563.97
2022-07-30T04:04:15.333Z,100563.72
2022-07-30T04:06:43.342Z,100563.28
2022-07-30T04:09:13.390Z,100570.84
2022-07-30T04:11:42.337Z,100571.91
2022-07-30T04:14:12.282Z,100577.53
2022-07-30T04:16:47.252Z,100578.09
2022-07-30T04:19:18.179Z,100566.56
2022-07-30T04:21:50.078Z,100567.09
2022-07-30T04:24:19.504Z,100550.59
2022-07-30T04:26:51.022Z,100564.13
2022-07-30T04:29:24.446Z,100562.50
2022-07-30T04:31:54.100Z,100549.63
2022-07-30T04:34:22.896Z,100548.03
2022-07-30T04:36:50.834Z,100556.84
2022-07-30T04:39:18.601Z,100551.50
2022-07-30T04:41:49.761Z,100544.28
2022-07-30T04:44:20.843Z,100555.75
2022-07-30T04:46:49.259Z,100558.16
2022-07-30T04:49:19.206Z,100555.78
2022-07-30T04:51:47.938Z,100573.25
2022-07-30T04:54:18.712Z,100565.16
2022-07-30T04:56:52.586Z,100564.41
2022-07-30T04:59:30.879Z,100563.88
2022-07-30T05:02:00.454Z,100561.72
2022-07-30T05:04:29.738Z,100557.69
2022-07-30T05:06:59.102Z,100556.75
2022-07-30T05:09:27.643Z,100562.78
2022-07-30T05:11:57.529Z,100559.03
2022-07-30T05:14:29.095Z,100542.13
2022-07-30T05:17:00.261Z,100553.41
2022-07-30T05:19:28.403Z,100561.19
2022-07-30T05:22:02.361Z,100548.56
2022-07-30T05:24:32.772Z,100560.94
2022-07-30T05:27:06.271Z,100547.25
2022-07-30T05:29:34.077Z,100546.69
2022-07-30T05:32:06.391Z,100553.91
2022-07-30T05:34:35.558Z,100553.66
2022-07-30T05:37:07.176Z,100561.44
2022-07-30T05:39:57.413Z,100558.50
2022-07-30T05:42:32.625Z,100547.75
2022-07-30T05:45:03.395Z,100549.66
2022-07-30T05:47:34.293Z,100551.53
2022-07-30T05:50:05.575Z,100538.88
2022-07-30T05:52:36.137Z,100541.06
2022-07-30T05:55:04.214Z,100546.69
2022-07-30T05:57:37.482Z,100536.75
2022-07-30T06:00:06.724Z,100541.59
2022-07-30T06:02:37.402Z,100546.44
2022-07-30T06:05:11.540Z,100543.44
2022-07-30T06:10:12.170Z,100542.13
2022-07-30T06:12:40.202Z,100544.00
2022-07-30T06:15:10.045Z,100542.88
2022-07-30T06:17:42.955Z,100544.75
2022-07-30T06:25:12.558Z,100544.25
2022-07-30T06:27:51.006Z,100544.78
2022-07-30T06:30:19.126Z,100543.72
2022-07-30T06:32:48.778Z,100552.63
2022-07-30T06:35:18.369Z,100540.16
2022-07-30T06:40:19.139Z,100535.94
2022-07-30T06:42:47.289Z,100527.91
2022-07-30T06:45:15.269Z,100530.84
2022-07-30T06:47:44.539Z,100522.50
2022-07-30T06:50:12.635Z,100526.81
2022-07-30T06:52:41.119Z,100522.78
2022-07-30T06:55:12.563Z,100517.63
2022-07-30T06:57:47.346Z,100513.91
2022-07-30T07:00:16.029Z,100516.31
2022-07-30T07:02:44.258Z,100530.28
2022-07-30T07:05:12.393Z,100520.56
2022-07-30T07:07:43.188Z,100518.19
2022-07-30T07:10:15.452Z,100518.09
2022-07-30T07:12:49.360Z,100514.94
2022-07-30T07:15:18.089Z,100519.38
2022-07-30T07:17:49.396Z,100518.09
2022-07-30T07:20:18.569Z,100525.31
2022-07-30T07:25:19.402Z,100517.56
2022-07-30T07:28:12.195Z,100519.13
2022-07-30T07:30:37.540Z,100524.22
2022-07-30T07:33:05.898Z,100520.78
2022-07-30T07:35:40.527Z,100519.13
2022-07-30T07:38:18.947Z,100526.16
2022-07-30T07:40:51.752Z,100499.50
2022-07-30T07:43:25.514Z,100504.56
2022-07-30T07:45:54.429Z,100507.25
2022-07-30T07:48:22.525Z,100505.03
2022-07-30T07:50:51.008Z,100500.41
2022-07-30T07:53:18.848Z,100502.88
2022-07-30T07:55:47.812Z,100489.81
2022-07-30T07:58:26.087Z,100489.66
2022-07-30T08:00:59.832Z,100484.16
2022-07-30T08:03:29.550Z,100483.84
2022-07-30T08:06:04.767Z,100487.75
2022-07-30T08:08:38.155Z,100479.44
2022-07-30T08:11:10.624Z,100479.06
2022-07-30T08:13:48.771Z,100480.22
2022-07-30T08:16:25.469Z,100478.34
2022-07-30T08:19:01.265Z,100482.22
2022-07-30T08:21:32.812Z,100470.91
2022-07-30T08:24:01.628Z,100482.28
2022-07-30T08:26:33.050Z,100469.16
2022-07-30T08:29:00.888Z,100484.38
2022-07-30T08:31:37.250Z,100488.84
2022-07-30T08:34:06.252Z,100479.47
2022-07-30T08:36:35.015Z,100480.25
2022-07-30T08:39:05.666Z,100474.94
2022-07-30T08:41:36.168Z,100476.09
2022-07-30T08:44:12.586Z,100483.22
2022-07-30T08:46:47.742Z,100482.09
2022-07-30T08:49:22.680Z,100476.59
2022-07-30T08:51:54.631Z,100465.34
2022-07-30T08:54:23.624Z,100473.94
2022-07-30T08:56:53.782Z,100469.53
2022-07-30T08:59:24.397Z,100466.75
2022-07-30T09:02:14.207Z,100472.38
2022-07-30T09:04:42.074Z,100462.72
2022-07-30T09:07:10.103Z,100465.22
2022-07-30T09:09:38.753Z,100462.28
2022-07-30T09:12:34.360Z,100466.75
2022-07-30T09:15:08.872Z,100465.03
2022-07-30T09:17:54.851Z,100476.75
2022-07-30T09:20:28.233Z,100463.84
2022-07-30T09:23:01.799Z,100456.75
2022-07-30T09:25:38.088Z,100462.03
2022-07-30T09:28:16.261Z,100463.72
2022-07-30T09:30:47.675Z,100463.34
2022-07-30T09:33:32.289Z,100464.25
2022-07-30T09:38:43.954Z,100468.13
2022-07-30T09:41:36.171Z,100459.53
2022-07-30T09:44:07.522Z,100466.25
2022-07-30T09:46:53.717Z,100466.31
2022-07-30T09:49:29.353Z,100474.34
2022-07-30T09:52:30.458Z,100465.94
2022-07-30T09:54:58.730Z,100468.44
2022-07-30T09:57:28.535Z,100465.81
2022-07-30T09:59:58.121Z,100462.00
2022-07-30T10:02:40.578Z,100462.59
2022-07-30T10:05:16.604Z,100466.59
2022-07-30T10:07:57.479Z,100463.53
2022-07-30T10:10:32.859Z,100466.31
2022-07-30T10:13:04.865Z,100470.94
2022-07-30T10:15:36.625Z,100481.81
2022-07-30T10:18:08.689Z,100479.91
2022-07-30T10:20:43.356Z,100476.22
2022-07-30T10:23:24.031Z,100491.13
2022-07-30T10:26:04.030Z,100488.81
2022-07-30T10:28:38.434Z,100489.59
2022-07-30T10:38:52.588Z,100478.13
2022-07-30T10:41:47.415Z,100471.38
2022-07-30T10:44:37.119Z,100468.94
2022-07-30T10:47:16.889Z,100468.09
2022-07-30T10:49:59.955Z,100455.69
2022-07-30T10:53:01.382Z,100448.94
2022-07-30T10:55:38.595Z,100452.22
2022-07-30T10:58:17.865Z,100444.97
2022-07-30T11:03:41.444Z,100453.56
2022-07-30T11:06:27.709Z,100450.84
2022-07-30T11:12:01.746Z,100439.00
2022-07-30T11:15:07.171Z,100443.97
2022-07-30T11:18:02.342Z,100435.47
2022-07-30T11:20:36.561Z,100431.78
2022-07-30T11:23:13.972Z,100439.09
2022-07-30T11:25:51.804Z,100434.13
2022-07-30T11:28:49.820Z,100424.66
2022-07-30T11:31:56.536Z,100432.34
2022-07-30T11:34:31.226Z,100436.25
2022-07-30T11:37:31.835Z,100408.41
2022-07-30T11:43:20.528Z,100419.03
2022-07-30T11:46:29.229Z,100405.72
2022-07-30T11:49:03.483Z,100398.69
2022-07-30T11:51:46.637Z,100403.72
2022-07-30T11:54:21.603Z,100380.16
2022-07-30T12:00:02.132Z,100396.94
2022-07-30T12:05:21.038Z,100403.72
2022-07-30T12:07:53.835Z,100396.44
2022-07-30T12:10:27.147Z,100400.81
2022-07-30T12:13:19.448Z,100395.72
2022-07-30T12:16:04.135Z,100405.28
2022-07-30T12:18:40.464Z,100409.72
2022-07-30T12:23:49.062Z,100402.91
2022-07-30T12:26:29.715Z,100386.97
2022-07-30T12:29:01.654Z,100400.69
2022-07-30T12:31:41.781Z,100398.28
2022-07-30T12:34:24.578Z,100394.84
2022-07-30T12:40:16.561Z,100402.50
2022-07-30T12:43:18.772Z,100403.69
2022-07-30T12:46:06.360Z,100390.81
2022-07-30T12:48:44.599Z,100394.94
2022-07-30T12:51:13.580Z,100388.38
2022-07-30T12:56:41.850Z,100389.31
2022-07-30T12:59:25.906Z,100385.84
2022-07-30T13:02:01.008Z,100378.91
2022-07-30T13:04:36.081Z,100379.69
2022-07-30T13:07:11.208Z,100385.03
2022-07-30T13:09:43.526Z,100390.31
2022-07-30T13:12:20.020Z,100383.00
2022-07-30T13:17:52.838Z,100365.88
2022-07-30T13:20:30.838Z,100372.69
2022-07-30T13:23:07.603Z,100351.34
2022-07-30T13:25:46.217Z,100359.44
2022-07-30T13:28:19.914Z,100353.34
2022-07-30T13:33:48.558Z,100334.47
2022-07-30T13:36:21.250Z,100331.44
2022-07-30T13:38:55.338Z,100327.00
2022-07-30T13:41:34.368Z,100326.75
2022-07-30T13:46:44.193Z,100314.38
2022-07-30T13:49:34.129Z,100312.47
2022-07-30T13:52:08.833Z,100311.41
2022-07-30T13:54:46.499Z,100307.56
2022-07-30T14:00:17.950Z,100316.78
2022-07-30T14:02:53.402Z,100319.84
2022-07-30T14:05:50.526Z,100315.78
2022-07-30T14:08:29.192Z,100306.50
2022-07-30T14:11:02.814Z,100308.00
2022-07-30T14:13:41.295Z,100307.09
2022-07-30T14:16:35.332Z,100307.19
2022-07-30T14:19:07.843Z,100309.34
2022-07-30T14:22:09.335Z,100305.09
2022-07-30T14:24:41.070Z,100316.38
2022-07-30T14:27:10.903Z,100322.09
2022-07-30T14:29:45.379Z,100311.66
2022-07-30T14:32:31.024Z,100303.19
2022-07-30T14:35:04.650Z,100312.06
2022-07-30T14:37:36.842Z,100309.13
2022-07-30T14:40:16.930Z,100300.38
2022-07-30T14:42:44.721Z,100297.91
2022-07-30T14:45:16.665Z,100303.50
2022-07-30T14:52:53.889Z,100312.06
2022-07-30T14:55:24.462Z,100314.91
2022-07-30T14:57:52.334Z,100302.47
2022-07-30T15:00:21.298Z,100299.72
2022-07-30T15:02:52.567Z,100291.22
2022-07-30T15:05:23.840Z,100300.50
2022-07-30T15:07:52.166Z,100310.97
2022-07-30T15:10:21.084Z,100305.41
2022-07-30T15:15:19.338Z,100300.19
2022-07-30T15:17:50.445Z,100304.25
2022-07-30T15:20:19.642Z,100303.25
2022-07-30T15:22:49.888Z,100307.69
2022-07-30T15:25:20.428Z,100303.75
2022-07-30T15:27:52.398Z,100305.56
2022-07-30T15:32:52.768Z,100315.19
2022-07-30T15:35:22.550Z,100302.13
2022-07-30T15:37:54.525Z,100297.59
2022-07-30T15:40:24.962Z,100293.53
2022-07-30T15:47:57.809Z,100278.19
2022-07-30T15:50:25.924Z,100262.72
2022-07-30T15:53:03.819Z,100253.09
2022-07-30T15:55:47.455Z,100247.63
2022-07-30T15:58:15.828Z,100260.31
2022-07-30T16:00:51.029Z,100263.44
2022-07-30T16:03:19.217Z,100239.50
2022-07-30T16:05:52.191Z,100236.53
2022-07-30T16:08:21.666Z,100240.00
2022-07-30T16:10:50.156Z,100245.72
2022-07-30T16:13:18.712Z,100236.16
2022-07-30T16:18:19.151Z,100227.25
2022-07-30T16:20:47.046Z,100212.81
2022-07-30T16:23:20.819Z,100205.56
2022-07-30T16:25:53.054Z,100206.50
2022-07-30T16:28:21.814Z,100214.47
2022-07-30T16:30:51.766Z,100209.53
2022-07-30T16:33:21.786Z,100225.81
2022-07-30T16:35:53.223Z,100242.97
2022-07-30T16:38:25.245Z,100252.09
2022-07-30T16:40:53.444Z,100252.19
2022-07-30T16:43:25.249Z,100237.53
2022-07-30T16:45:54.078Z,100246.03
2022-07-30T16:50:56.272Z,100257.75
2022-07-30T16:53:24.468Z,100255.16
2022-07-30T16:55:52.460Z,100246.78
2022-07-30T16:58:21.417Z,100243.81
2022-07-30T17:00:57.322Z,100244.22
2022-07-30T17:05:54.134Z,100261.84
2022-07-30T17:08:24.939Z,100254.78
2022-07-30T17:10:53.574Z,100258.47
2022-07-30T17:13:22.701Z,100224.25
2022-07-30T17:15:53.698Z,100242.50
2022-07-30T17:18:24.379Z,100231.66
2022-07-30T17:20:58.623Z,100203.50
2022-07-30T17:23:27.528Z,100199.81
2022-07-30T17:25:59.803Z,100199.13
2022-07-30T17:28:31.825Z,100205.88
2022-07-30T17:31:07.258Z,100211.81
2022-07-30T17:33:35.651Z,100209.09
2022-07-30T17:36:05.525Z,100227.94
2022-07-30T17:38:40.251Z,100211.34
2022-07-30T17:41:13.600Z,100190.84
2022-07-30T17:43:42.251Z,100210.47
2022-07-30T17:46:15.782Z,100215.22
2022-07-30T17:48:43.537Z,100223.72
2022-07-30T17:51:12.505Z,100208.09
2022-07-30T17:53:42.231Z,100218.69
2022-07-30T17:56:26.847Z,100206.88
2022-07-30T17:58:59.328Z,100205.75
2022-07-30T18:01:27.502Z,100214.41
2022-07-30T18:03:59.033Z,100197.97
2022-07-30T18:06:27.519Z,100205.81
2022-07-30T18:08:56.360Z,100168.84
2022-07-30T18:13:58.183Z,100186.31
2022-07-30T18:16:27.020Z,100174.13
2022-07-30T18:18:55.830Z,100183.34
2022-07-30T18:23:55.837Z,100197.75
2022-07-30T18:28:58.643Z,100207.16
2022-07-30T18:31:30.276Z,100199.84
2022-07-30T18:34:01.630Z,100204.97
2022-07-30T18:36:30.068Z,100212.44
2022-07-30T18:38:58.105Z,100187.13
2022-07-30T18:41:33.426Z,100206.41
2022-07-30T18:44:01.903Z,100195.44
2022-07-30T18:46:30.903Z,100188.00
2022-07-30T18:49:20.937Z,100180.63
2022-07-30T18:51:52.424Z,100192.50
2022-07-30T18:59:18.405Z,100188.19
2022-07-30T19:01:47.070Z,100205.09
2022-07-30T19:06:46.210Z,100219.78
2022-07-30T19:09:17.539Z,100236.88
2022-07-30T19:11:49.593Z,100224.75
2022-07-30T19:14:24.472Z,100229.75
2022-07-30T19:16:53.061Z,100224.72
2022-07-30T19:19:22.656Z,100221.66
2022-07-30T19:21:51.134Z,100223.47
2022-07-30T19:24:21.843Z,100217.31
2022-07-30T19:26:54.156Z,100229.97
2022-07-30T19:29:26.120Z,100224.91
2022-07-30T19:31:58.701Z,100234.84
2022-07-30T19:34:26.747Z,100199.81
2022-07-30T19:36:58.567Z,100171.91
2022-07-30T19:39:29.815Z,100210.28
2022-07-30T19:42:03.452Z,100185.53
2022-07-30T19:47:09.372Z,100204.63
2022-07-30T19:49:41.550Z,100171.13
2022-07-30T19:52:23.389Z,100178.38
2022-07-30T19:55:04.839Z,100194.25
2022-07-30T19:57:54.195Z,100201.97
2022-07-30T20:00:35.708Z,100190.94
2022-07-30T20:03:12.700Z,100202.81
2022-07-30T20:05:54.962Z,100177.19
2022-07-30T20:11:04.729Z,100208.03
2022-07-30T20:13:46.255Z,100198.63
2022-07-30T20:18:49.727Z,100199.94
2022-07-30T20:21:57.756Z,100197.78
2022-07-30T20:24:18.097Z,100175.00
2022-07-30T20:26:47.976Z,100157.72
2022-07-30T20:29:23.002Z,100164.34
2022-07-30T20:31:55.657Z,100160.38
2022-07-30T20:36:59.262Z,100160.31
2022-07-30T20:39:49.468Z,100164.16
2022-07-30T20:45:06.621Z,100166.22
2022-07-30T20:47:52.515Z,100150.22
2022-07-30T20:50:31.454Z,100178.91
2022-07-30T20:55:54.382Z,100169.78
2022-07-30T20:58:30.148Z,100187.94
2022-07-30T21:03:48.908Z,100194.06
2022-07-30T21:06:24.388Z,100202.00
2022-07-30T21:08:57.668Z,100169.22
2022-07-30T21:14:08.705Z,100148.88
2022-07-30T21:16:39.928Z,100153.72
2022-07-30T21:19:10.410Z,100132.31
2022-07-30T21:21:47.876Z,100135.25
2022-07-30T21:24:22.426Z,100122.13
2022-07-30T21:29:52.579Z,100156.41
2022-07-30T21:32:29.027Z,100124.00
2022-07-30T21:34:57.500Z,100071.34
2022-07-30T21:37:36.695Z,100066.41
2022-07-30T21:40:07.793Z,100106.78
2022-07-30T21:42:48.501Z,100121.25
2022-07-30T21:45:17.304Z,100126.13
2022-07-30T21:47:47.549Z,100109.75
2022-07-30T21:50:39.454Z,100061.03
2022-07-30T21:56:06.816Z,100109.22
2022-07-30T22:01:17.022Z,100115.13
2022-07-30T22:04:04.806Z,100096.69
2022-07-30T22:06:38.054Z,100088.91
2022-07-30T22:09:19.291Z,100093.41
2022-07-30T22:12:09.146Z,100051.97
2022-07-30T22:14:49.442Z,100052.09
2022-07-30T22:17:23.458Z,100068.56
2022-07-30T22:20:02.214Z,100046.25
2022-07-30T22:25:21.839Z,100058.06
2022-07-30T22:27:55.779Z,100050.59
2022-07-30T22:30:45.668Z,100019.78
2022-07-30T22:33:16.715Z,100031.34
2022-07-30T22:35:49.842Z,100072.13
2022-07-30T22:38:25.281Z,100066.41
2022-07-30T22:40:54.821Z,100020.63
2022-07-30T22:43:41.000Z,100086.50
2022-07-30T22:46:30.068Z,100107.00
2022-07-30T22:49:25.075Z,100107.09
2022-07-30T22:52:28.970Z,100092.47
2022-07-30T22:55:09.342Z,100041.50
2022-07-30T22:57:42.349Z,100036.69
2022-07-30T23:00:28.174Z,99990.94
2022-07-30T23:02:58.283Z,99996.56
2022-07-30T23:05:31.840Z,100041.69
2022-07-30T23:08:06.435Z,100054.28
2022-07-30T23:12:28.646Z,100100.34
2022-07-30T23:16:03.373Z,99971.50
2022-07-30T23:18:36.037Z,100004.06
2022-07-30T23:21:06.110Z,100003.13
2022-07-30T23:23:38.158Z,100016.06
2022-07-30T23:26:07.133Z,99992.16
2022-07-30T23:28:37.233Z,100003.78
2022-07-30T23:33:42.594Z,99983.00
2022-07-30T23:38:39.582Z,99972.38
2022-07-30T23:41:09.522Z,99974.84
2022-07-30T23:43:38.033Z,99974.31
2022-07-30T23:46:11.523Z,99919.44
2022-07-30T23:48:45.564Z,99922.41
2022-07-30T23:51:14.108Z,99907.19
2022-07-30T23:53:46.192Z,99849.66
2022-07-30T23:56:20.976Z,99847.53
2022-07-30T23:58:53.770Z,99884.97
